Kinaros — SVAO9 — position and weather

sailwx.info

Track history (hours):
 
Tides and Currents Weather Stations Pressure Air Temp Water Temp Dewpoint Dewpoint Depression Visibility Wind Speed Wind Dir Waves Ship Positions

Kinaros

Last reported at 2017-Sep-20 13:38 UTC. Time now 2017-Sep-21 03:37 UTC.
Position N 29°32' W 094°54'.

Length 183 m; draft 12 m.

Type: Tanker. MMSI: 240904000.

Date/timePositionNaut miles runAvg speedWind from/ knotsBaromVisibWave heightAir tempDewpointWater temp
2017-Sep-20 13:38N 29°32' W 094°54'110.5
2017-Sep-20 13:30N 29°33' W 094°55'510.3
2017-Sep-20 13:00N 29°38' W 094°58'5 9.0
2017-Sep-20 12:30N 29°42' W 094°60'3 6.5
2017-Sep-20 12:00N 29°44' W 095°03'3 4.7
2017-Sep-20 11:25N 29°45' W 095°06'0 0.7
2017-Sep-20 11:00N 29°45' W 095°06'0 0.0
2017-Sep-19 01:26N 29°45' W 095°06'1 1.7
2017-Sep-19 01:00N 29°45' W 095°06'3 6.1
2017-Sep-19 00:30N 29°44' W 095°03'4 8.3
2017-Sep-19 00:00N 29°41' W 094°59'611.2
2017-Sep-18 23:30N 29°36' W 094°57'611.7
2017-Sep-18 23:00N 29°31' W 094°53'612.1
2017-Sep-18 22:30N 29°26' W 094°50'611.6
2017-Sep-18 22:00N 29°21' W 094°46'2 0.0
2017-Sep-17 06:59N 29°21' W 094°44'0 0.0
2017-Sep-17 06:29N 29°21' W 094°44'0 0.1
2017-Sep-17 04:50N 29°21' W 094°44'0 0.0
2017-Sep-16 22:34N 29°21' W 094°44'0 0.6
2017-Sep-16 22:27N 29°21' W 094°44'  
Track history (hours):
 
Tides and Currents Weather Stations Pressure Air Temp Water Temp Dewpoint Dewpoint Depression Visibility Wind Speed Wind Dir Waves Ship Positions

Kinaros

Last reported at 2017-Sep-20 13:38 UTC. Time now 2017-Sep-21 03:37 UTC.
Position N 29°32' W 094°54'.

Length 183 m; draft 12 m.

Type: Tanker. MMSI: 240904000.

Date/timePositionNaut miles runAvg speedWind from/ knotsBaromVisibWave heightAir tempDewpointWater temp
2017-Sep-20 13:38N 29°32' W 094°54'110.5
2017-Sep-20 13:30N 29°33' W 094°55'510.3
2017-Sep-20 13:00N 29°38' W 094°58'5 9.0
2017-Sep-20 12:30N 29°42' W 094°60'3 6.5
2017-Sep-20 12:00N 29°44' W 095°03'3 4.7
2017-Sep-20 11:25N 29°45' W 095°06'0 0.7
2017-Sep-20 11:00N 29°45' W 095°06'0 0.0
2017-Sep-19 01:26N 29°45' W 095°06'1 1.7
2017-Sep-19 01:00N 29°45' W 095°06'3 6.1
2017-Sep-19 00:30N 29°44' W 095°03'4 8.3
2017-Sep-19 00:00N 29°41' W 094°59'611.2
2017-Sep-18 23:30N 29°36' W 094°57'611.7
2017-Sep-18 23:00N 29°31' W 094°53'612.1
2017-Sep-18 22:30N 29°26' W 094°50'611.6
2017-Sep-18 22:00N 29°21' W 094°46'2 0.0
2017-Sep-17 06:59N 29°21' W 094°44'0 0.0
2017-Sep-17 06:29N 29°21' W 094°44'0 0.1
2017-Sep-17 04:50N 29°21' W 094°44'0 0.0
2017-Sep-16 22:34N 29°21' W 094°44'0 0.6
2017-Sep-16 22:27N 29°21' W 094°44'  

Dump ship's entire track history